sensor_id;sensor_type;location;lat;lon;timestamp;temperature;humidity
17421;DHT22;8828;48.800;9.540;2023-03-17T00:01:43;8.80;83.80
17421;DHT22;8828;48.800;9.540;2023-03-17T00:04:13;8.80;84.00
17421;DHT22;8828;48.800;9.540;2023-03-17T00:06:43;8.70;84.10
17421;DHT22;8828;48.800;9.540;2023-03-17T00:09:12;8.70;84.50
17421;DHT22;8828;48.800;9.540;2023-03-17T00:11:40;8.70;84.80
17421;DHT22;8828;48.800;9.540;2023-03-17T00:14:08;8.60;85.00
17421;DHT22;8828;48.800;9.540;2023-03-17T00:16:38;8.60;85.50
17421;DHT22;8828;48.800;9.540;2023-03-17T00:19:13;8.60;85.50
17421;DHT22;8828;48.800;9.540;2023-03-17T00:21:43;8.50;85.70
17421;DHT22;8828;48.800;9.540;2023-03-17T00:24:13;8.50;85.90
17421;DHT22;8828;48.800;9.540;2023-03-17T00:26:41;8.40;86.00
17421;DHT22;8828;48.800;9.540;2023-03-17T00:29:09;8.50;86.10
17421;DHT22;8828;48.800;9.540;2023-03-17T00:31:38;8.40;86.30
17421;DHT22;8828;48.800;9.540;2023-03-17T00:34:08;8.40;86.50
17421;DHT22;8828;48.800;9.540;2023-03-17T00:36:37;8.40;86.70
17421;DHT22;8828;48.800;9.540;2023-03-17T00:39:11;8.40;86.90
17421;DHT22;8828;48.800;9.540;2023-03-17T00:41:43;8.50;86.80
17421;DHT22;8828;48.800;9.540;2023-03-17T00:44:11;8.50;86.90
17421;DHT22;8828;48.800;9.540;2023-03-17T00:46:39;8.50;87.10
17421;DHT22;8828;48.800;9.540;2023-03-17T00:49:14;8.50;87.10
17421;DHT22;8828;48.800;9.540;2023-03-17T00:51:41;8.50;86.90
17421;DHT22;8828;48.800;9.540;2023-03-17T00:54:12;8.60;87.10
17421;DHT22;8828;48.800;9.540;2023-03-17T00:56:41;8.60;87.30
17421;DHT22;8828;48.800;9.540;2023-03-17T00:59:14;8.60;87.60
17421;DHT22;8828;48.800;9.540;2023-03-17T01:01:46;8.60;88.10
17421;DHT22;8828;48.800;9.540;2023-03-17T01:04:14;8.60;88.40
17421;DHT22;8828;48.800;9.540;2023-03-17T01:06:42;8.60;88.70
17421;DHT22;8828;48.800;9.540;2023-03-17T01:09:13;8.60;88.90
17421;DHT22;8828;48.800;9.540;2023-03-17T01:11:42;8.60;89.30
17421;DHT22;8828;48.800;9.540;2023-03-17T01:14:10;8.50;89.40
17421;DHT22;8828;48.800;9.540;2023-03-17T01:16:39;8.50;89.90
17421;DHT22;8828;48.800;9.540;2023-03-17T01:19:08;8.50;90.00
17421;DHT22;8828;48.800;9.540;2023-03-17T01:21:37;8.40;90.20
17421;DHT22;8828;48.800;9.540;2023-03-17T01:24:06;8.40;90.40
17421;DHT22;8828;48.800;9.540;2023-03-17T01:26:37;8.40;90.60
17421;DHT22;8828;48.800;9.540;2023-03-17T01:29:06;8.30;90.80
17421;DHT22;8828;48.800;9.540;2023-03-17T01:31:34;8.30;91.10
17421;DHT22;8828;48.800;9.540;2023-03-17T01:34:02;8.30;91.10
17421;DHT22;8828;48.800;9.540;2023-03-17T01:36:31;8.30;91.00
17421;DHT22;8828;48.800;9.540;2023-03-17T01:38:59;8.30;90.80
17421;DHT22;8828;48.800;9.540;2023-03-17T01:41:32;8.30;91.10
17421;DHT22;8828;48.800;9.540;2023-03-17T01:44:01;8.40;91.40
17421;DHT22;8828;48.800;9.540;2023-03-17T01:46:30;8.40;91.50
17421;DHT22;8828;48.800;9.540;2023-03-17T01:49:16;8.30;91.60
17421;DHT22;8828;48.800;9.540;2023-03-17T01:51:53;8.30;91.80
17421;DHT22;8828;48.800;9.540;2023-03-17T01:54:27;8.30;92.00
17421;DHT22;8828;48.800;9.540;2023-03-17T01:57:00;8.30;92.10
17421;DHT22;8828;48.800;9.540;2023-03-17T01:59:34;8.30;92.30
17421;DHT22;8828;48.800;9.540;2023-03-17T02:02:07;8.30;92.40
17421;DHT22;8828;48.800;9.540;2023-03-17T02:04:36;8.30;92.50
17421;DHT22;8828;48.800;9.540;2023-03-17T02:07:06;8.20;92.70
17421;DHT22;8828;48.800;9.540;2023-03-17T02:09:34;8.20;93.00
17421;DHT22;8828;48.800;9.540;2023-03-17T02:12:04;8.20;93.20
17421;DHT22;8828;48.800;9.540;2023-03-17T02:14:34;8.20;93.40
17421;DHT22;8828;48.800;9.540;2023-03-17T02:17:03;8.20;93.50
17421;DHT22;8828;48.800;9.540;2023-03-17T02:19:30;8.20;93.60
17421;DHT22;8828;48.800;9.540;2023-03-17T02:22:01;8.10;93.80
17421;DHT22;8828;48.800;9.540;2023-03-17T02:24:32;8.10;94.00
17421;DHT22;8828;48.800;9.540;2023-03-17T02:27:04;8.10;94.10
17421;DHT22;8828;48.800;9.540;2023-03-17T02:29:34;8.10;94.40
17421;DHT22;8828;48.800;9.540;2023-03-17T02:32:04;8.00;94.40
17421;DHT22;8828;48.800;9.540;2023-03-17T02:34:34;8.00;94.60
17421;DHT22;8828;48.800;9.540;2023-03-17T02:37:04;8.00;94.90
17421;DHT22;8828;48.800;9.540;2023-03-17T02:39:33;8.00;95.20
17421;DHT22;8828;48.800;9.540;2023-03-17T02:42:02;7.90;95.40
17421;DHT22;8828;48.800;9.540;2023-03-17T02:44:30;7.90;95.60
17421;DHT22;8828;48.800;9.540;2023-03-17T02:46:58;7.90;95.90
17421;DHT22;8828;48.800;9.540;2023-03-17T02:49:26;7.90;96.20
17421;DHT22;8828;48.800;9.540;2023-03-17T02:51:55;7.90;96.30
17421;DHT22;8828;48.800;9.540;2023-03-17T02:54:24;7.80;96.50
17421;DHT22;8828;48.800;9.540;2023-03-17T02:56:52;7.80;96.70
17421;DHT22;8828;48.800;9.540;2023-03-17T02:59:20;7.80;96.90
17421;DHT22;8828;48.800;9.540;2023-03-17T03:01:48;7.70;97.10
17421;DHT22;8828;48.800;9.540;2023-03-17T03:04:16;7.70;97.30
17421;DHT22;8828;48.800;9.540;2023-03-17T03:06:44;7.60;97.50
17421;DHT22;8828;48.800;9.540;2023-03-17T03:09:13;7.60;97.60
17421;DHT22;8828;48.800;9.540;2023-03-17T03:11:45;7.60;97.90
17421;DHT22;8828;48.800;9.540;2023-03-17T03:14:13;7.60;98.20
17421;DHT22;8828;48.800;9.540;2023-03-17T03:16:42;7.60;98.30
17421;DHT22;8828;48.800;9.540;2023-03-17T03:19:10;7.60;98.50
17421;DHT22;8828;48.800;9.540;2023-03-17T03:21:38;7.60;98.60
17421;DHT22;8828;48.800;9.540;2023-03-17T03:24:06;7.50;98.90
17421;DHT22;8828;48.800;9.540;2023-03-17T03:26:35;7.50;99.20
17421;DHT22;8828;48.800;9.540;2023-03-17T03:29:04;7.50;99.50
17421;DHT22;8828;48.800;9.540;2023-03-17T03:31:33;7.50;99.80
17421;DHT22;8828;48.800;9.540;2023-03-17T03:34:01;7.50;99.90
17421;DHT22;8828;48.800;9.540;2023-03-17T03:36:29;7.50;99.90
17421;DHT22;8828;48.800;9.540;2023-03-17T03:38:56;7.50;99.90
17421;DHT22;8828;48.800;9.540;2023-03-17T03:41:26;7.50;99.90
17421;DHT22;8828;48.800;9.540;2023-03-17T03:43:54;7.50;99.90
17421;DHT22;8828;48.800;9.540;2023-03-17T03:46:23;7.50;99.90
17421;DHT22;8828;48.800;9.540;2023-03-17T03:48:52;7.50;99.90
17421;DHT22;8828;48.800;9.540;2023-03-17T03:51:20;7.50;99.90
17421;DHT22;8828;48.800;9.540;2023-03-17T03:53:48;7.50;99.90
17421;DHT22;8828;48.800;9.540;2023-03-17T03:56:16;7.50;99.90
17421;DHT22;8828;48.800;9.540;2023-03-17T03:58:44;7.40;99.90
17421;DHT22;8828;48.800;9.540;2023-03-17T04:01:12;7.40;99.90
17421;DHT22;8828;48.800;9.540;2023-03-17T04:03:41;7.40;99.90
17421;DHT22;8828;48.800;9.540;2023-03-17T04:06:12;7.40;99.90
17421;DHT22;8828;48.800;9.540;2023-03-17T04:08:40;7.30;99.90
17421;DHT22;8828;48.800;9.540;2023-03-17T04:11:08;7.30;99.90
17421;DHT22;8828;48.800;9.540;2023-03-17T04:13:36;7.30;99.90
17421;DHT22;8828;48.800;9.540;2023-03-17T04:16:05;7.20;99.90
17421;DHT22;8828;48.800;9.540;2023-03-17T04:18:33;7.20;99.90
17421;DHT22;8828;48.800;9.540;2023-03-17T04:21:02;7.10;99.90
17421;DHT22;8828;48.800;9.540;2023-03-17T04:23:31;7.00;99.90
17421;DHT22;8828;48.800;9.540;2023-03-17T04:25:58;7.00;99.90
17421;DHT22;8828;48.800;9.540;2023-03-17T04:28:27;6.90;99.90
17421;DHT22;8828;48.800;9.540;2023-03-17T04:30:54;6.90;99.90
17421;DHT22;8828;48.800;9.540;2023-03-17T04:33:22;6.80;99.90
17421;DHT22;8828;48.800;9.540;2023-03-17T04:35:50;6.80;99.90
17421;DHT22;8828;48.800;9.540;2023-03-17T04:38:20;6.80;99.90
17421;DHT22;8828;48.800;9.540;2023-03-17T04:40:49;6.70;99.90
17421;DHT22;8828;48.800;9.540;2023-03-17T04:43:17;6.70;99.90
17421;DHT22;8828;48.800;9.540;2023-03-17T04:45:45;6.60;99.90
17421;DHT22;8828;48.800;9.540;2023-03-17T04:48:13;6.60;99.90
17421;DHT22;8828;48.800;9.540;2023-03-17T04:50:41;6.60;99.90
17421;DHT22;8828;48.800;9.540;2023-03-17T04:53:09;6.50;99.90
17421;DHT22;8828;48.800;9.540;2023-03-17T04:55:39;6.50;99.90
17421;DHT22;8828;48.800;9.540;2023-03-17T04:58:07;6.40;99.90
17421;DHT22;8828;48.800;9.540;2023-03-17T05:00:39;6.40;99.90
17421;DHT22;8828;48.800;9.540;2023-03-17T05:03:07;6.30;99.90
17421;DHT22;8828;48.800;9.540;2023-03-17T05:05:52;6.30;99.90
17421;DHT22;8828;48.800;9.540;2023-03-17T05:08:20;6.30;99.90
17421;DHT22;8828;48.800;9.540;2023-03-17T05:10:49;6.30;99.90
17421;DHT22;8828;48.800;9.540;2023-03-17T05:13:17;6.30;99.90
17421;DHT22;8828;48.800;9.540;2023-03-17T05:15:45;6.30;99.90
17421;DHT22;8828;48.800;9.540;2023-03-17T05:18:14;6.20;99.90
17421;DHT22;8828;48.800;9.540;2023-03-17T05:20:42;6.20;99.90
17421;DHT22;8828;48.800;9.540;2023-03-17T05:23:10;6.20;99.90
17421;DHT22;8828;48.800;9.540;2023-03-17T05:25:38;6.20;99.90
17421;DHT22;8828;48.800;9.540;2023-03-17T05:28:09;6.20;99.90
17421;DHT22;8828;48.800;9.540;2023-03-17T05:30:37;6.20;99.90
17421;DHT22;8828;48.800;9.540;2023-03-17T05:33:05;6.10;99.90
17421;DHT22;8828;48.800;9.540;2023-03-17T05:35:33;6.10;99.90
17421;DHT22;8828;48.800;9.540;2023-03-17T05:38:01;6.10;99.90
17421;DHT22;8828;48.800;9.540;2023-03-17T05:40:29;6.10;99.90
17421;DHT22;8828;48.800;9.540;2023-03-17T05:42:58;6.10;99.90
17421;DHT22;8828;48.800;9.540;2023-03-17T05:45:27;6.00;99.90
17421;DHT22;8828;48.800;9.540;2023-03-17T05:47:56;6.00;99.90
17421;DHT22;8828;48.800;9.540;2023-03-17T05:50:24;6.00;99.90
17421;DHT22;8828;48.800;9.540;2023-03-17T05:52:52;6.00;99.90
17421;DHT22;8828;48.800;9.540;2023-03-17T05:55:20;5.90;99.90
17421;DHT22;8828;48.800;9.540;2023-03-17T05:57:48;6.00;99.90
17421;DHT22;8828;48.800;9.540;2023-03-17T06:00:17;6.00;99.90
17421;DHT22;8828;48.800;9.540;2023-03-17T06:02:48;6.00;99.90
17421;DHT22;8828;48.800;9.540;2023-03-17T06:05:16;6.00;99.90
17421;DHT22;8828;48.800;9.540;2023-03-17T06:07:44;6.00;99.90
17421;DHT22;8828;48.800;9.540;2023-03-17T06:10:21;6.10;99.90
17421;DHT22;8828;48.800;9.540;2023-03-17T06:12:49;6.10;99.90
17421;DHT22;8828;48.800;9.540;2023-03-17T06:15:17;6.10;99.90
17421;DHT22;8828;48.800;9.540;2023-03-17T06:17:47;6.20;99.90
17421;DHT22;8828;48.800;9.540;2023-03-17T06:20:16;6.20;99.90
17421;DHT22;8828;48.800;9.540;2023-03-17T06:22:44;6.30;99.90
17421;DHT22;8828;48.800;9.540;2023-03-17T06:25:29;6.30;99.90
17421;DHT22;8828;48.800;9.540;2023-03-17T06:27:58;6.40;99.90
17421;DHT22;8828;48.800;9.540;2023-03-17T06:30:28;6.40;99.90
17421;DHT22;8828;48.800;9.540;2023-03-17T06:32:57;6.40;99.90
17421;DHT22;8828;48.800;9.540;2023-03-17T06:35:26;6.50;99.90
17421;DHT22;8828;48.800;9.540;2023-03-17T06:37:54;6.50;99.90
17421;DHT22;8828;48.800;9.540;2023-03-17T06:40:22;6.50;99.90
17421;DHT22;8828;48.800;9.540;2023-03-17T06:42:51;6.50;99.90
17421;DHT22;8828;48.800;9.540;2023-03-17T06:45:19;6.60;99.90
17421;DHT22;8828;48.800;9.540;2023-03-17T06:47:47;6.60;99.90
17421;DHT22;8828;48.800;9.540;2023-03-17T06:50:17;6.70;99.90
17421;DHT22;8828;48.800;9.540;2023-03-17T06:52:45;6.80;99.90
17421;DHT22;8828;48.800;9.540;2023-03-17T06:55:13;6.80;99.90
17421;DHT22;8828;48.800;9.540;2023-03-17T06:57:41;6.90;99.90
17421;DHT22;8828;48.800;9.540;2023-03-17T07:00:10;7.00;99.90
17421;DHT22;8828;48.800;9.540;2023-03-17T07:02:39;7.00;99.90
17421;DHT22;8828;48.800;9.540;2023-03-17T07:05:08;7.20;99.90
17421;DHT22;8828;48.800;9.540;2023-03-17T07:07:37;7.30;99.90
17421;DHT22;8828;48.800;9.540;2023-03-17T07:10:06;7.40;99.90
17421;DHT22;8828;48.800;9.540;2023-03-17T07:12:36;7.50;99.90
17421;DHT22;8828;48.800;9.540;2023-03-17T07:15:04;7.60;99.90
17421;DHT22;8828;48.800;9.540;2023-03-17T07:17:32;7.70;99.90
17421;DHT22;8828;48.800;9.540;2023-03-17T07:20:00;7.80;99.90
17421;DHT22;8828;48.800;9.540;2023-03-17T07:22:28;8.00;99.90
17421;DHT22;8828;48.800;9.540;2023-03-17T07:24:58;8.10;99.90
17421;DHT22;8828;48.800;9.540;2023-03-17T07:27:26;8.20;99.90
17421;DHT22;8828;48.800;9.540;2023-03-17T07:29:53;8.40;99.90
17421;DHT22;8828;48.800;9.540;2023-03-17T07:32:22;8.60;99.90
17421;DHT22;8828;48.800;9.540;2023-03-17T07:34:50;8.80;99.90
17421;DHT22;8828;48.800;9.540;2023-03-17T07:37:18;9.00;99.90
17421;DHT22;8828;48.800;9.540;2023-03-17T07:39:47;9.20;99.90
17421;DHT22;8828;48.800;9.540;2023-03-17T07:42:16;9.40;99.90
17421;DHT22;8828;48.800;9.540;2023-03-17T07:44:44;9.60;99.90
17421;DHT22;8828;48.800;9.540;2023-03-17T07:47:13;9.90;99.90
17421;DHT22;8828;48.800;9.540;2023-03-17T07:49:41;10.00;99.90
17421;DHT22;8828;48.800;9.540;2023-03-17T07:52:10;10.20;99.90
17421;DHT22;8828;48.800;9.540;2023-03-17T07:54:38;10.40;99.90
17421;DHT22;8828;48.800;9.540;2023-03-17T07:57:09;10.90;99.90
17421;DHT22;8828;48.800;9.540;2023-03-17T07:59:38;11.50;99.90
17421;DHT22;8828;48.800;9.540;2023-03-17T08:02:11;11.90;99.90
17421;DHT22;8828;48.800;9.540;2023-03-17T08:04:41;12.40;99.90
17421;DHT22;8828;48.800;9.540;2023-03-17T08:07:10;12.90;99.90
17421;DHT22;8828;48.800;9.540;2023-03-17T08:09:39;13.40;99.90
17421;DHT22;8828;48.800;9.540;2023-03-17T08:12:08;13.70;99.90
17421;DHT22;8828;48.800;9.540;2023-03-17T08:14:37;13.90;99.90
17421;DHT22;8828;48.800;9.540;2023-03-17T08:17:05;14.10;99.90
17421;DHT22;8828;48.800;9.540;2023-03-17T08:19:34;14.10;99.90
17421;DHT22;8828;48.800;9.540;2023-03-17T08:22:02;14.20;99.80
17421;DHT22;8828;48.800;9.540;2023-03-17T08:24:30;14.40;99.10
17421;DHT22;8828;48.800;9.540;2023-03-17T08:26:58;14.70;98.30
17421;DHT22;8828;48.800;9.540;2023-03-17T08:29:26;15.60;97.40
17421;DHT22;8828;48.800;9.540;2023-03-17T08:31:57;16.80;95.80
17421;DHT22;8828;48.800;9.540;2023-03-17T08:34:25;17.50;93.50
17421;DHT22;8828;48.800;9.540;2023-03-17T08:36:52;18.60;91.50
17421;DHT22;8828;48.800;9.540;2023-03-17T08:39:21;19.70;86.70
17421;DHT22;8828;48.800;9.540;2023-03-17T08:41:49;20.70;80.30
17421;DHT22;8828;48.800;9.540;2023-03-17T08:44:18;21.60;75.00
17421;DHT22;8828;48.800;9.540;2023-03-17T08:46:46;22.30;69.50
17421;DHT22;8828;48.800;9.540;2023-03-17T08:49:16;22.60;65.50
17421;DHT22;8828;48.800;9.540;2023-03-17T08:51:44;22.90;63.10
17421;DHT22;8828;48.800;9.540;2023-03-17T08:54:13;23.00;60.80
17421;DHT22;8828;48.800;9.540;2023-03-17T08:56:41;23.50;59.00
17421;DHT22;8828;48.800;9.540;2023-03-17T08:59:10;24.00;57.40
17421;DHT22;8828;48.800;9.540;2023-03-17T09:01:38;24.20;56.20
17421;DHT22;8828;48.800;9.540;2023-03-17T09:04:07;24.30;55.60
17421;DHT22;8828;48.800;9.540;2023-03-17T09:06:36;24.90;55.00
17421;DHT22;8828;48.800;9.540;2023-03-17T09:09:14;25.70;54.10
17421;DHT22;8828;48.800;9.540;2023-03-17T09:11:43;26.70;52.40
17421;DHT22;8828;48.800;9.540;2023-03-17T09:14:10;27.40;50.90
17421;DHT22;8828;48.800;9.540;2023-03-17T09:16:38;28.20;49.10
17421;DHT22;8828;48.800;9.540;2023-03-17T09:19:07;28.90;47.70
17421;DHT22;8828;48.800;9.540;2023-03-17T09:21:35;29.70;45.60
17421;DHT22;8828;48.800;9.540;2023-03-17T09:24:04;30.40;43.40
17421;DHT22;8828;48.800;9.540;2023-03-17T09:26:32;30.90;43.00
17421;DHT22;8828;48.800;9.540;2023-03-17T09:29:00;31.10;40.80
17421;DHT22;8828;48.800;9.540;2023-03-17T09:31:30;31.30;39.50
17421;DHT22;8828;48.800;9.540;2023-03-17T09:33:58;31.50;39.00
17421;DHT22;8828;48.800;9.540;2023-03-17T09:36:26;32.10;38.20
17421;DHT22;8828;48.800;9.540;2023-03-17T09:38:54;33.00;38.20
17421;DHT22;8828;48.800;9.540;2023-03-17T09:41:35;33.80;36.50
17421;DHT22;8828;48.800;9.540;2023-03-17T09:44:16;34.60;35.40
17421;DHT22;8828;48.800;9.540;2023-03-17T09:46:56;35.20;35.10
17421;DHT22;8828;48.800;9.540;2023-03-17T09:49:36;35.40;34.00
17421;DHT22;8828;48.800;9.540;2023-03-17T09:52:10;35.70;33.90
17421;DHT22;8828;48.800;9.540;2023-03-17T09:54:39;36.20;33.30
17421;DHT22;8828;48.800;9.540;2023-03-17T09:57:14;36.80;32.90
17421;DHT22;8828;48.800;9.540;2023-03-17T09:59:44;37.40;32.20
17421;DHT22;8828;48.800;9.540;2023-03-17T10:02:17;37.80;31.60
17421;DHT22;8828;48.800;9.540;2023-03-17T10:04:48;38.10;31.40
17421;DHT22;8828;48.800;9.540;2023-03-17T10:07:20;37.90;32.20
17421;DHT22;8828;48.800;9.540;2023-03-17T10:09:57;38.20;31.30
17421;DHT22;8828;48.800;9.540;2023-03-17T10:12:40;38.60;30.90
17421;DHT22;8828;48.800;9.540;2023-03-17T10:15:17;38.80;30.40
17421;DHT22;8828;48.800;9.540;2023-03-17T10:17:47;38.40;30.40
17421;DHT22;8828;48.800;9.540;2023-03-17T10:20:22;38.10;30.60
17421;DHT22;8828;48.800;9.540;2023-03-17T10:22:53;38.30;31.70
17421;DHT22;8828;48.800;9.540;2023-03-17T10:25:26;37.80;30.60
17421;DHT22;8828;48.800;9.540;2023-03-17T10:27:59;37.30;30.70
17421;DHT22;8828;48.800;9.540;2023-03-17T10:30:31;38.00;30.50
17421;DHT22;8828;48.800;9.540;2023-03-17T10:33:01;38.70;30.20
17421;DHT22;8828;48.800;9.540;2023-03-17T10:35:33;39.40;29.80
17421;DHT22;8828;48.800;9.540;2023-03-17T10:38:13;40.00;29.80
17421;DHT22;8828;48.800;9.540;2023-03-17T10:40:44;40.60;29.60
17421;DHT22;8828;48.800;9.540;2023-03-17T10:43:20;40.70;29.60
17421;DHT22;8828;48.800;9.540;2023-03-17T10:45:57;40.30;29.50
17421;DHT22;8828;48.800;9.540;2023-03-17T10:48:26;40.20;29.40
17421;DHT22;8828;48.800;9.540;2023-03-17T10:50:56;40.40;29.60
17421;DHT22;8828;48.800;9.540;2023-03-17T10:53:26;40.60;29.20
17421;DHT22;8828;48.800;9.540;2023-03-17T10:55:58;40.30;29.60
17421;DHT22;8828;48.800;9.540;2023-03-17T10:58:39;40.20;29.80
17421;DHT22;8828;48.800;9.540;2023-03-17T11:01:15;40.40;29.20
17421;DHT22;8828;48.800;9.540;2023-03-17T11:03:46;40.70;29.40
17421;DHT22;8828;48.800;9.540;2023-03-17T11:06:15;41.20;29.20
17421;DHT22;8828;48.800;9.540;2023-03-17T11:08:47;41.40;29.20
17421;DHT22;8828;48.800;9.540;2023-03-17T11:11:23;41.30;29.30
17421;DHT22;8828;48.800;9.540;2023-03-17T11:14:00;41.00;28.50
17421;DHT22;8828;48.800;9.540;2023-03-17T11:16:31;40.50;29.10
17421;DHT22;8828;48.800;9.540;2023-03-17T11:19:00;40.10;29.50
17421;DHT22;8828;48.800;9.540;2023-03-17T11:21:30;39.60;29.70
17421;DHT22;8828;48.800;9.540;2023-03-17T11:24:02;38.70;29.90
17421;DHT22;8828;48.800;9.540;2023-03-17T11:26:46;37.90;30.00
17421;DHT22;8828;48.800;9.540;2023-03-17T11:29:23;37.20;30.90
17421;DHT22;8828;48.800;9.540;2023-03-17T11:31:58;36.60;31.10
17421;DHT22;8828;48.800;9.540;2023-03-17T11:34:36;36.30;30.80
17421;DHT22;8828;48.800;9.540;2023-03-17T11:37:15;36.10;30.80
17421;DHT22;8828;48.800;9.540;2023-03-17T11:39:53;35.70;30.80
17421;DHT22;8828;48.800;9.540;2023-03-17T11:42:25;35.70;31.60
17421;DHT22;8828;48.800;9.540;2023-03-17T11:45:13;35.50;31.50
17421;DHT22;8828;48.800;9.540;2023-03-17T11:47:56;35.30;31.70
17421;DHT22;8828;48.800;9.540;2023-03-17T11:50:29;34.70;31.90
17421;DHT22;8828;48.800;9.540;2023-03-17T11:53:15;34.10;32.50
17421;DHT22;8828;48.800;9.540;2023-03-17T11:55:50;33.70;32.80
17421;DHT22;8828;48.800;9.540;2023-03-17T11:58:26;33.80;33.10
17421;DHT22;8828;48.800;9.540;2023-03-17T12:00:59;33.90;33.10
17421;DHT22;8828;48.800;9.540;2023-03-17T12:03:32;34.10;33.20
17421;DHT22;8828;48.800;9.540;2023-03-17T12:06:09;34.30;33.10
17421;DHT22;8828;48.800;9.540;2023-03-17T12:08:41;34.90;32.30
17421;DHT22;8828;48.800;9.540;2023-03-17T12:11:14;35.60;32.40
17421;DHT22;8828;48.800;9.540;2023-03-17T12:13:44;36.20;31.90
17421;DHT22;8828;48.800;9.540;2023-03-17T12:16:16;36.80;31.00
17421;DHT22;8828;48.800;9.540;2023-03-17T12:18:54;36.80;30.80
17421;DHT22;8828;48.800;9.540;2023-03-17T12:21:27;36.40;30.70
17421;DHT22;8828;48.800;9.540;2023-03-17T12:24:03;36.30;30.50
17421;DHT22;8828;48.800;9.540;2023-03-17T12:26:37;36.50;30.60
17421;DHT22;8828;48.800;9.540;2023-03-17T12:29:11;36.70;30.70
17421;DHT22;8828;48.800;9.540;2023-03-17T12:31:44;36.40;30.40
17421;DHT22;8828;48.800;9.540;2023-03-17T12:34:18;35.90;30.70
17421;DHT22;8828;48.800;9.540;2023-03-17T12:36:47;35.20;30.90
17421;DHT22;8828;48.800;9.540;2023-03-17T12:39:18;34.90;31.50
17421;DHT22;8828;48.800;9.540;2023-03-17T12:45:06;33.90;32.10
17421;DHT22;8828;48.800;9.540;2023-03-17T12:47:48;33.60;32.20
17421;DHT22;8828;48.800;9.540;2023-03-17T12:50:46;33.70;32.70
17421;DHT22;8828;48.800;9.540;2023-03-17T12:53:23;34.00;32.00
17421;DHT22;8828;48.800;9.540;2023-03-17T12:55:55;34.00;31.60
17421;DHT22;8828;48.800;9.540;2023-03-17T12:58:31;33.60;31.80
17421;DHT22;8828;48.800;9.540;2023-03-17T13:01:07;32.90;32.60
17421;DHT22;8828;48.800;9.540;2023-03-17T13:03:45;32.20;32.50
17421;DHT22;8828;48.800;9.540;2023-03-17T13:06:23;31.50;32.80
17421;DHT22;8828;48.800;9.540;2023-03-17T13:08:52;30.90;32.90
17421;DHT22;8828;48.800;9.540;2023-03-17T13:11:26;30.60;33.30
17421;DHT22;8828;48.800;9.540;2023-03-17T13:14:05;30.50;34.20
17421;DHT22;8828;48.800;9.540;2023-03-17T13:16:36;30.30;34.40
17421;DHT22;8828;48.800;9.540;2023-03-17T13:19:20;30.30;34.40
17421;DHT22;8828;48.800;9.540;2023-03-17T13:21:51;30.10;34.40
17421;DHT22;8828;48.800;9.540;2023-03-17T13:24:23;30.00;34.80
17421;DHT22;8828;48.800;9.540;2023-03-17T13:27:02;29.70;34.50
17421;DHT22;8828;48.800;9.540;2023-03-17T13:29:44;29.40;34.60
17421;DHT22;8828;48.800;9.540;2023-03-17T13:32:32;29.00;35.40
17421;DHT22;8828;48.800;9.540;2023-03-17T13:35:19;28.70;35.30
17421;DHT22;8828;48.800;9.540;2023-03-17T13:41:36;28.00;36.00
17421;DHT22;8828;48.800;9.540;2023-03-17T13:44:29;28.00;36.10
17421;DHT22;8828;48.800;9.540;2023-03-17T13:47:25;27.80;36.10
17421;DHT22;8828;48.800;9.540;2023-03-17T13:49:59;27.50;37.10
17421;DHT22;8828;48.800;9.540;2023-03-17T13:52:32;27.20;37.30
17421;DHT22;8828;48.800;9.540;2023-03-17T13:55:03;26.80;37.50
17421;DHT22;8828;48.800;9.540;2023-03-17T13:57:55;26.70;37.40
17421;DHT22;8828;48.800;9.540;2023-03-17T14:00:43;26.50;37.80
17421;DHT22;8828;48.800;9.540;2023-03-17T14:03:17;26.50;37.40
17421;DHT22;8828;48.800;9.540;2023-03-17T14:05:48;26.50;37.80
17421;DHT22;8828;48.800;9.540;2023-03-17T14:08:23;26.50;37.60
17421;DHT22;8828;48.800;9.540;2023-03-17T14:10:55;26.60;38.00
17421;DHT22;8828;48.800;9.540;2023-03-17T14:13:26;26.80;37.70
17421;DHT22;8828;48.800;9.540;2023-03-17T14:15:58;26.90;38.40
17421;DHT22;8828;48.800;9.540;2023-03-17T14:18:31;27.20;37.80
17421;DHT22;8828;48.800;9.540;2023-03-17T14:21:03;27.80;37.30
17421;DHT22;8828;48.800;9.540;2023-03-17T14:23:37;28.30;37.20
17421;DHT22;8828;48.800;9.540;2023-03-17T14:26:09;28.20;36.50
17421;DHT22;8828;48.800;9.540;2023-03-17T14:28:39;27.90;36.70
17421;DHT22;8828;48.800;9.540;2023-03-17T14:31:15;27.50;36.40
17421;DHT22;8828;48.800;9.540;2023-03-17T14:33:45;27.00;36.80
17421;DHT22;8828;48.800;9.540;2023-03-17T14:36:13;26.50;37.50
17421;DHT22;8828;48.800;9.540;2023-03-17T14:38:46;26.00;37.90
17421;DHT22;8828;48.800;9.540;2023-03-17T14:41:19;25.60;37.90
17421;DHT22;8828;48.800;9.540;2023-03-17T14:43:50;25.10;38.70
17421;DHT22;8828;48.800;9.540;2023-03-17T14:46:21;24.80;39.20
17421;DHT22;8828;48.800;9.540;2023-03-17T14:48:54;24.40;39.50
17421;DHT22;8828;48.800;9.540;2023-03-17T14:51:26;24.10;40.30
17421;DHT22;8828;48.800;9.540;2023-03-17T14:53:58;23.90;41.00
17421;DHT22;8828;48.800;9.540;2023-03-17T14:56:30;23.70;41.10
17421;DHT22;8828;48.800;9.540;2023-03-17T14:59:14;23.50;41.50
17421;DHT22;8828;48.800;9.540;2023-03-17T15:01:44;23.30;41.70
17421;DHT22;8828;48.800;9.540;2023-03-17T15:04:16;23.10;41.90
17421;DHT22;8828;48.800;9.540;2023-03-17T15:06:47;23.00;42.40
17421;DHT22;8828;48.800;9.540;2023-03-17T15:09:17;22.80;42.10
17421;DHT22;8828;48.800;9.540;2023-03-17T15:11:46;22.60;42.00
17421;DHT22;8828;48.800;9.540;2023-03-17T15:14:20;22.50;41.90
17421;DHT22;8828;48.800;9.540;2023-03-17T15:16:51;22.40;41.90
17421;DHT22;8828;48.800;9.540;2023-03-17T15:19:21;22.30;42.10
17421;DHT22;8828;48.800;9.540;2023-03-17T15:21:54;22.10;42.40
17421;DHT22;8828;48.800;9.540;2023-03-17T15:24:35;22.10;43.00
17421;DHT22;8828;48.800;9.540;2023-03-17T15:27:05;22.00;43.30
17421;DHT22;8828;48.800;9.540;2023-03-17T15:29:34;21.90;43.30
17421;DHT22;8828;48.800;9.540;2023-03-17T15:32:10;21.80;43.70
17421;DHT22;8828;48.800;9.540;2023-03-17T15:34:39;21.70;44.10
17421;DHT22;8828;48.800;9.540;2023-03-17T15:37:17;21.60;44.30
17421;DHT22;8828;48.800;9.540;2023-03-17T15:39:46;21.40;44.20
17421;DHT22;8828;48.800;9.540;2023-03-17T15:42:16;21.40;44.70
17421;DHT22;8828;48.800;9.540;2023-03-17T15:44:48;21.30;45.60
17421;DHT22;8828;48.800;9.540;2023-03-17T15:47:18;21.20;45.30
17421;DHT22;8828;48.800;9.540;2023-03-17T15:49:48;21.10;45.80
17421;DHT22;8828;48.800;9.540;2023-03-17T15:52:19;21.00;46.00
17421;DHT22;8828;48.800;9.540;2023-03-17T15:54:51;20.90;46.10
17421;DHT22;8828;48.800;9.540;2023-03-17T15:57:19;20.80;46.60
17421;DHT22;8828;48.800;9.540;2023-03-17T15:59:48;20.70;47.50
17421;DHT22;8828;48.800;9.540;2023-03-17T16:02:26;20.60;47.50
17421;DHT22;8828;48.800;9.540;2023-03-17T16:04:54;20.50;47.60
17421;DHT22;8828;48.800;9.540;2023-03-17T16:07:23;20.40;48.20
17421;DHT22;8828;48.800;9.540;2023-03-17T16:09:51;20.30;48.70
17421;DHT22;8828;48.800;9.540;2023-03-17T16:12:19;20.20;48.80
17421;DHT22;8828;48.800;9.540;2023-03-17T16:14:48;20.20;49.10
17421;DHT22;8828;48.800;9.540;2023-03-17T16:17:22;20.10;49.30
17421;DHT22;8828;48.800;9.540;2023-03-17T16:19:52;20.00;49.50
17421;DHT22;8828;48.800;9.540;2023-03-17T16:22:37;19.90;49.80
17421;DHT22;8828;48.800;9.540;2023-03-17T16:25:21;19.90;50.00
17421;DHT22;8828;48.800;9.540;2023-03-17T16:27:51;19.80;50.30